Time;durP1;ratioP1;P1;durP2;ratioP2;P2;SDS_P1;SDS_P2;PMS_P1;PMS_P2;Temp;Humidity;BMP_temperature;BMP_pressure;BME280_temperature;BME280_humidity;BME280_pressure;Samples;Min_cycle;Max_cycle;Signal;HPM_P1;HPM_P2
2022/06/10 00:02:10;;;;;;;;;9.00;6.75;;;;;19.76;53.27;101505.41;4993248;28;45470;-59
2022/06/10 00:04:35;;;;;;;;;8.00;7.00;;;;;19.74;53.30;101507.63;4982355;28;46339;-58
2022/06/10 00:07:01;;;;;;;;;8.25;6.75;;;;;19.73;53.02;101505.09;4973179;28;45482;-55
2022/06/10 00:09:26;;;;;;;;;7.25;6.00;;;;;19.76;53.32;101504.59;4973241;28;45833;-54
2022/06/10 00:11:52;;;;;;;;;10.25;7.00;;;;;19.54;53.30;101473.91;4973465;28;45342;-55
2022/06/10 00:14:17;;;;;;;;;9.00;7.25;;;;;19.74;53.49;101509.56;4971749;28;45830;-58
2022/06/10 00:16:43;;;;;;;;;8.00;8.00;;;;;19.72;53.85;101512.59;4971734;28;45444;-56
2022/06/10 00:19:08;;;;;;;;;7.25;6.25;;;;;19.74;53.46;101512.38;4937472;28;45735;-53
2022/06/10 00:21:33;;;;;;;;;8.25;7.25;;;;;19.70;53.42;101511.16;4972939;28;45594;-53
2022/06/10 00:23:59;;;;;;;;;5.75;5.75;;;;;19.59;53.63;101494.28;4972707;28;45595;-59
2022/06/10 00:26:24;;;;;;;;;6.25;5.25;;;;;19.63;53.76;101501.06;4972488;28;45414;-59
2022/06/10 00:28:50;;;;;;;;;5.00;5.00;;;;;19.63;53.59;101503.84;4971253;28;45441;-56
2022/06/10 00:31:16;;;;;;;;;8.50;4.25;;;;;19.62;53.70;101507.72;4973110;28;45728;-55
2022/06/10 00:33:41;;;;;;;;;7.40;6.40;;;;;19.49;53.71;101477.44;4972507;28;45753;-55
2022/06/10 00:36:07;;;;;;;;;5.00;5.00;;;;;19.58;53.52;101506.53;4971658;28;45992;-57
2022/06/10 00:38:33;;;;;;;;;8.40;7.00;;;;;19.56;53.87;101511.53;4971471;28;45881;-57
2022/06/10 00:40:59;;;;;;;;;5.00;5.00;;;;;19.56;53.93;101500.38;4971401;28;45952;-57
2022/06/10 00:43:30;;;;;;;;;7.00;5.50;;;;;19.50;54.24;101505.03;4964033;28;45866;-56
2022/06/10 00:45:56;;;;;;;;;6.60;5.20;;;;;19.59;53.87;101502.66;4972291;28;45826;-56
2022/06/10 00:48:43;;;;;;;;;7.40;4.20;;;;;19.59;54.09;101510.19;4963767;28;45414;-57
2022/06/10 00:51:19;;;;;;;;;5.20;5.20;;;;;19.64;53.96;101507.47;4972570;28;45462;-52
2022/06/10 00:53:45;;;;;;;;;5.60;4.60;;;;;19.52;54.09;101501.16;4971027;28;46641;-55
2022/06/10 00:56:14;;;;;;;;;5.50;5.50;;;;;19.43;53.92;101473.72;4975428;28;45858;-57
2022/06/10 00:58:45;;;;;;;;;7.80;6.00;;;;;19.39;53.96;101461.44;5006703;28;45464;-53
2022/06/10 01:01:10;;;;;;;;;5.80;5.80;;;;;19.62;53.58;101499.38;4992303;28;45441;-55
2022/06/10 01:03:36;;;;;;;;;5.00;5.00;;;;;19.57;54.27;101493.72;5023398;28;45491;-50
2022/06/10 01:06:01;;;;;;;;;7.75;5.00;;;;;19.39;53.64;101458.66;5007261;28;45406;-52
2022/06/10 01:08:27;;;;;;;;;7.00;5.25;;;;;19.58;53.55;101484.25;4975176;28;45391;-56
2022/06/10 01:11:08;;;;;;;;;6.25;5.00;;;;;19.57;53.76;101490.94;4973674;28;45401;-53
2022/06/10 01:13:52;;;;;;;;;5.00;4.40;;;;;19.55;53.86;101489.50;4974786;28;47037;-55
2022/06/10 01:16:29;;;;;;;;;4.40;4.40;;;;;19.28;53.88;101456.78;4975666;28;45318;-53
2022/06/10 01:19:10;;;;;;;;;5.00;4.60;;;;;19.36;53.60;101478.63;4975174;28;45381;-51
2022/06/10 01:21:45;;;;;;;;;4.00;4.00;;;;;19.34;54.18;101473.34;4952255;28;45258;-53
2022/06/10 01:24:30;;;;;;;;;10.40;5.40;;;;;19.42;53.95;101497.09;5027249;28;46703;-49
2022/06/10 01:30:01;;;;;;;;;7.40;3.20;;;;;19.42;54.14;101494.31;4995542;28;45293;-52
2022/06/10 01:32:41;;;;;;;;;5.40;5.40;;;;;19.39;54.29;101485.63;4995922;28;45463;-55
2022/06/10 01:35:15;;;;;;;;;4.60;4.60;;;;;19.36;54.16;101490.63;5009859;28;45464;-49
2022/06/10 01:37:59;;;;;;;;;4.00;4.00;;;;;19.17;54.22;101450.22;4995798;28;45389;-54
2022/06/10 01:40:31;;;;;;;;;6.20;5.20;;;;;19.29;54.10;101476.03;5013877;28;45468;-52
2022/06/10 01:43:25;;;;;;;;;6.20;5.00;;;;;19.16;54.38;101454.94;5030623;28;45326;-50
2022/06/10 01:46:09;;;;;;;;;4.40;4.40;;;;;19.33;54.18;101485.53;5024440;28;47024;-54
2022/06/10 01:48:39;;;;;;;;;8.20;7.00;;;;;19.18;54.17;101471.38;4997897;28;45324;-55
2022/06/10 01:51:10;;;;;;;;;6.40;4.40;;;;;19.28;54.26;101490.19;4997965;28;45461;-53
2022/06/10 01:53:43;;;;;;;;;6.00;4.60;;;;;19.31;54.71;101498.88;5030622;28;45263;-53
2022/06/10 01:56:34;;;;;;;;;6.40;4.80;;;;;19.25;54.53;101493.50;5011701;28;45800;-52
2022/06/10 01:59:10;;;;;;;;;4.60;4.60;;;;;19.28;54.39;101496.59;4978204;28;45503;-53
2022/06/10 02:01:38;;;;;;;;;7.40;5.40;;;;;19.27;54.55;101494.94;4962723;28;45533;-53
2022/06/10 02:04:13;;;;;;;;;7.40;6.60;;;;;19.17;54.80;101478.03;4978075;28;45738;-55
2022/06/10 02:06:57;;;;;;;;;7.60;4.80;;;;;19.26;54.50;101501.56;4962405;28;45500;-48
2022/06/10 02:09:25;;;;;;;;;3.80;3.80;;;;;18.92;54.60;101468.13;4978831;28;45534;-57
2022/06/10 02:11:59;;;;;;;;;5.20;5.20;;;;;19.09;54.91;101496.00;4962125;28;45382;-51
2022/06/10 02:14:37;;;;;;;;;5.00;5.00;;;;;18.89;54.92;101469.47;4962057;28;45772;-54
2022/06/10 02:17:04;;;;;;;;;4.20;3.60;;;;;19.14;55.11;101500.78;4978749;28;46467;-52
2022/06/10 02:19:39;;;;;;;;;5.40;4.80;;;;;19.10;54.55;101492.97;4977373;28;45484;-49
2022/06/10 02:22:08;;;;;;;;;5.00;4.40;;;;;19.09;54.86;101494.06;4978836;28;45522;-52
2022/06/10 02:24:39;;;;;;;;;4.00;4.00;;;;;19.05;55.19;101498.44;4977439;28;45456;-55
2022/06/10 02:27:08;;;;;;;;;4.60;4.20;;;;;19.05;54.83;101494.81;4978724;28;46609;-55
2022/06/10 02:29:39;;;;;;;;;8.40;4.40;;;;;19.07;54.81;101496.25;4977170;28;45472;-54
2022/06/10 02:32:05;;;;;;;;;6.00;5.00;;;;;19.05;54.99;101487.31;4977563;28;45439;-52
2022/06/10 02:34:30;;;;;;;;;6.00;6.00;;;;;19.01;54.87;101485.25;4978847;28;45513;-56
2022/06/10 02:36:59;;;;;;;;;4.50;4.50;;;;;19.05;55.24;101498.44;4977375;28;45610;-54
2022/06/10 02:39:54;;;;;;;;;4.00;4.00;;;;;18.99;54.83;101510.53;4977129;28;45465;-54
2022/06/10 02:42:42;;;;;;;;;9.00;5.00;;;;;18.98;54.79;101502.44;4978887;28;45369;-51
2022/06/10 02:45:23;;;;;;;;;5.80;4.00;;;;;18.92;54.98;101502.34;4977424;28;45535;-52
2022/06/10 02:48:23;;;;;;;;;4.60;4.60;;;;;18.94;55.04;101505.72;4978436;28;45941;-53
2022/06/10 02:50:49;;;;;;;;;6.00;6.00;;;;;18.94;54.96;101502.09;4969487;28;45920;-55
2022/06/10 02:53:14;;;;;;;;;7.00;7.00;;;;;18.91;54.80;101508.16;4961011;28;45408;-53
2022/06/10 02:55:40;;;;;;;;;3.75;3.50;;;;;18.89;54.54;101511.19;4978538;28;45889;-48
2022/06/10 03:01:13;;;;;;;;;4.40;4.40;;;;;18.86;54.75;101514.47;4945483;28;45636;-49
2022/06/10 03:04:14;;;;;;;;;5.60;4.80;;;;;18.80;55.02;101527.41;4978242;28;45388;-53
2022/06/10 03:06:45;;;;;;;;;5.00;4.80;;;;;18.79;54.64;101516.56;4977211;28;45563;-52
2022/06/10 03:09:27;;;;;;;;;4.20;4.20;;;;;18.70;55.02;101510.56;4977899;28;45539;-51
2022/06/10 03:12:20;;;;;;;;;5.80;4.60;;;;;18.76;54.95;101517.91;4977858;28;45381;-50
2022/06/10 03:15:03;;;;;;;;;7.00;5.20;;;;;18.69;54.86;101515.25;4978256;28;45372;-54
2022/06/10 03:17:49;;;;;;;;;8.00;4.00;;;;;18.72;54.86;101513.91;4962177;28;45464;-50
2022/06/10 03:20:19;;;;;;;;;4.60;4.00;;;;;18.75;54.93;101527.34;4976751;28;46624;-53
2022/06/10 03:23:03;;;;;;;;;6.60;5.00;;;;;18.72;54.95;101529.78;4977948;28;45299;-53
2022/06/10 03:25:33;;;;;;;;;4.80;3.40;;;;;18.68;55.38;101524.69;4977811;28;45410;-56
2022/06/10 03:28:12;;;;;;;;;5.60;4.00;;;;;18.66;55.26;101534.38;4976795;28;45416;-54
2022/06/10 03:30:51;;;;;;;;;4.00;4.00;;;;;18.45;55.25;101503.38;4961639;28;46143;-56
2022/06/10 03:33:34;;;;;;;;;4.00;2.80;;;;;18.48;55.28;101502.91;4945311;28;45237;-56
2022/06/10 03:36:09;;;;;;;;;9.60;6.80;;;;;18.62;55.33;101533.19;4976440;28;45435;-55
2022/06/10 03:38:39;;;;;;;;;3.60;3.00;;;;;18.60;55.09;101533.44;4960809;28;45405;-52
2022/06/10 03:41:04;;;;;;;;;5.40;4.40;;;;;18.61;55.14;101534.28;4960041;28;46784;-51
2022/06/10 03:43:38;;;;;;;;;3.00;3.00;;;;;18.34;55.27;101491.22;4976546;28;45891;-54
2022/06/10 03:46:07;;;;;;;;;3.60;3.60;;;;;18.45;55.62;101514.50;4976445;28;45328;-49
2022/06/10 03:48:35;;;;;;;;;5.40;4.40;;;;;18.50;55.74;101520.16;4976915;28;45448;-54
2022/06/10 03:51:00;;;;;;;;;4.80;4.80;;;;;18.48;56.07;101519.59;4976314;28;45795;-51
2022/06/10 03:53:26;;;;;;;;;4.00;3.75;;;;;18.36;55.50;101505.69;4977335;28;45339;-49
2022/06/10 03:55:51;;;;;;;;;3.25;3.25;;;;;18.53;55.96;101529.97;4977372;28;45394;-53
2022/06/10 03:58:17;;;;;;;;;4.00;4.00;;;;;18.51;56.05;101523.81;4992388;28;45465;-57
2022/06/10 04:00:43;;;;;;;;;5.00;5.00;;;;;18.53;56.25;101532.72;4996972;28;45649;-50
2022/06/10 04:03:08;;;;;;;;;5.50;3.00;;;;;18.20;55.95;101481.47;4996308;28;45260;-51
2022/06/10 04:05:34;;;;;;;;;5.00;3.50;;;;;18.40;56.16;101517.16;4996896;28;45322;-54
2022/06/10 04:07:59;;;;;;;;;6.25;4.75;;;;;18.50;56.25;101536.84;4997354;28;45345;-54
2022/06/10 04:10:26;;;;;;;;;4.50;3.00;;;;;18.50;56.07;101545.19;4996556;28;45537;-51
2022/06/10 04:12:51;;;;;;;;;5.20;5.20;;;;;18.47;56.21;101537.31;4995632;28;45424;-55
2022/06/10 04:15:17;;;;;;;;;6.75;6.00;;;;;18.20;56.32;101506.47;4995581;28;45422;-52
2022/06/10 04:17:44;;;;;;;;;5.00;5.00;;;;;18.35;56.59;101531.81;4996921;28;45362;-51
2022/06/10 04:20:14;;;;;;;;;5.20;5.20;;;;;18.43;56.85;101548.09;4996476;28;46580;-52
2022/06/10 04:22:40;;;;;;;;;4.80;4.80;;;;;18.46;56.60;101552.31;5028107;28;45449;-51
2022/06/10 04:25:06;;;;;;;;;5.75;4.75;;;;;18.48;56.31;101550.16;4996878;28;45394;-57
2022/06/10 04:27:31;;;;;;;;;4.00;4.00;;;;;18.53;56.69;101557.75;4996624;28;45377;-53
2022/06/10 04:29:58;;;;;;;;;6.25;4.75;;;;;18.53;56.58;101543.84;4996226;28;45904;-52
2022/06/10 04:32:23;;;;;;;;;5.60;5.60;;;;;18.47;56.53;101534.53;4996061;28;45426;-53
2022/06/10 04:34:49;;;;;;;;;5.00;4.75;;;;;18.36;56.54;101513.22;4996511;28;45342;-53
2022/06/10 04:37:14;;;;;;;;;3.75;3.75;;;;;18.56;56.41;101549.75;4996369;28;45627;-55
2022/06/10 04:39:40;;;;;;;;;5.00;4.50;;;;;18.63;56.26;101554.34;4996058;28;46331;-52
2022/06/10 04:42:05;;;;;;;;;6.00;4.50;;;;;18.66;56.49;101567.72;4996359;28;45349;-50
2022/06/10 04:44:31;;;;;;;;;4.25;4.00;;;;;18.69;56.29;101565.31;4996387;28;45753;-53
2022/06/10 04:46:56;;;;;;;;;4.75;3.75;;;;;18.67;56.52;101558.28;4996802;28;45148;-51
2022/06/10 04:49:22;;;;;;;;;5.00;3.25;;;;;18.68;56.71;101555.28;4996402;28;45759;-49
2022/06/10 04:51:47;;;;;;;;;8.25;5.25;;;;;18.73;56.60;101560.09;4994722;28;45286;-53
2022/06/10 04:54:13;;;;;;;;;5.00;4.25;;;;;18.79;56.72;101553.53;4965786;28;45571;-54
2022/06/10 04:56:38;;;;;;;;;5.00;5.00;;;;;18.79;56.28;101553.53;4976865;28;45457;-52
2022/06/10 04:59:04;;;;;;;;;7.00;7.00;;;;;18.77;56.63;101550.19;4993622;28;47407;-52
2022/06/10 05:01:30;;;;;;;;;5.50;4.75;;;;;18.79;56.15;101547.16;4995004;28;45381;-54
2022/06/10 05:03:55;;;;;;;;;3.00;3.00;;;;;18.83;56.37;101557.53;4996533;28;45409;-57
2022/06/10 05:06:20;;;;;;;;;4.75;4.25;;;;;18.76;56.41;101544.84;4996439;28;45593;-53
2022/06/10 05:08:46;;;;;;;;;4.25;4.00;;;;;18.82;56.64;101547.50;4996112;28;46296;-56
2022/06/10 05:11:11;;;;;;;;;2.75;2.75;;;;;18.64;56.51;101528.22;4994996;28;45369;-52
2022/06/10 05:13:37;;;;;;;;;5.00;5.00;;;;;18.87;56.85;101554.22;4995827;28;45433;-51
2022/06/10 05:16:04;;;;;;;;;5.00;5.00;;;;;18.69;56.47;101526.38;4996434;28;45658;-57
2022/06/10 05:18:29;;;;;;;;;3.20;3.00;;;;;18.61;56.69;101500.94;4995991;28;46659;-52
2022/06/10 05:20:55;;;;;;;;;6.00;4.50;;;;;18.95;56.43;101554.69;4995965;28;45299;-52
2022/06/10 05:23:21;;;;;;;;;4.50;4.50;;;;;18.94;56.51;101547.44;4996376;28;45188;-51
2022/06/10 05:25:47;;;;;;;;;4.00;4.00;;;;;18.96;56.38;101552.75;4996287;28;45293;-53
2022/06/10 05:28:12;;;;;;;;;3.25;3.25;;;;;18.96;56.54;101563.88;4996210;28;45467;-51
2022/06/10 05:30:38;;;;;;;;;4.00;4.00;;;;;18.98;56.47;101558.09;4995847;28;45390;-55
2022/06/10 05:33:04;;;;;;;;;4.75;4.75;;;;;18.95;56.73;101557.47;4994824;28;45443;-57
2022/06/10 05:35:30;;;;;;;;;4.60;4.00;;;;;18.85;56.54;101539.75;4996222;28;45433;-55
2022/06/10 05:37:55;;;;;;;;;4.50;4.00;;;;;19.01;56.60;101569.56;5027205;28;46620;-54
2022/06/10 05:40:22;;;;;;;;;4.00;4.00;;;;;18.99;56.80;101557.81;5027734;28;45441;-53
2022/06/10 05:42:48;;;;;;;;;5.20;3.80;;;;;18.93;56.83;101565.22;4995444;28;45480;-53
2022/06/10 05:45:14;;;;;;;;;4.00;3.00;;;;;18.77;57.14;101540.97;4996237;28;45351;-57
2022/06/10 05:47:39;;;;;;;;;4.00;3.00;;;;;18.74;57.03;101530.38;4995585;28;47478;-54
2022/06/10 05:50:16;;;;;;;;;5.75;4.75;;;;;18.87;57.11;101565.34;4995502;28;45350;-54
2022/06/10 05:52:42;;;;;;;;;3.00;3.00;;;;;18.74;56.79;101536.78;5025183;28;45538;-54
2022/06/10 05:55:09;;;;;;;;;3.25;3.25;;;;;18.96;57.20;101572.22;4995723;28;45344;-54
2022/06/10 05:57:34;;;;;;;;;4.40;3.00;;;;;19.02;57.33;101587.97;4989329;28;46413;-53
2022/06/10 06:00:00;;;;;;;;;4.25;3.25;;;;;18.71;57.13;101534.47;4975691;28;45524;-55
2022/06/10 06:02:25;;;;;;;;;4.00;4.00;;;;;19.08;57.11;101600.03;4974722;28;45411;-56
2022/06/10 06:04:51;;;;;;;;;3.75;3.75;;;;;18.88;56.99;101564.28;4974511;28;45578;-52
2022/06/10 06:07:22;;;;;;;;;3.00;3.00;;;;;18.91;56.85;101575.75;4975810;28;46632;-50
2022/06/10 06:09:48;;;;;;;;;4.60;4.20;;;;;19.01;57.15;101596.50;4975740;28;45221;-52
2022/06/10 06:12:13;;;;;;;;;3.50;3.25;;;;;18.92;57.28;101580.22;4975888;28;45758;-52
2022/06/10 06:14:39;;;;;;;;;2.25;2.25;;;;;19.04;57.39;101610.81;4976059;28;45560;-54
2022/06/10 06:17:04;;;;;;;;;5.00;3.00;;;;;19.02;57.69;101607.44;4975485;28;45889;-53
2022/06/10 06:19:31;;;;;;;;;3.25;3.25;;;;;18.97;57.44;101601.72;4975775;28;45574;-53
2022/06/10 06:21:56;;;;;;;;;3.60;2.80;;;;;19.05;57.61;101612.47;4975615;28;45358;-53
2022/06/10 06:24:22;;;;;;;;;4.00;2.75;;;;;18.84;57.30;101572.28;4975910;28;45337;-53
2022/06/10 06:26:48;;;;;;;;;2.00;2.00;;;;;19.08;57.08;101605.59;4978295;28;47001;-58
2022/06/10 06:29:14;;;;;;;;;3.50;2.75;;;;;18.99;57.52;101601.50;4978950;28;45334;-54
2022/06/10 06:31:39;;;;;;;;;3.00;3.00;;;;;19.03;57.48;101608.25;4961725;28;45378;-52
2022/06/10 06:34:05;;;;;;;;;3.00;3.00;;;;;19.01;57.14;101615.97;4977771;28;45636;-50
2022/06/10 06:36:36;;;;;;;;;4.25;4.00;;;;;19.01;57.54;101610.41;4978763;28;46730;-52
2022/06/10 06:39:02;;;;;;;;;2.80;2.40;;;;;18.87;57.27;101582.03;4977224;28;45636;-56
2022/06/10 06:41:28;;;;;;;;;3.40;3.40;;;;;19.01;57.42;101611.28;4978462;28;45437;-50
2022/06/10 06:43:53;;;;;;;;;4.25;4.25;;;;;18.83;57.64;101578.91;4978840;28;45454;-49
2022/06/10 06:46:19;;;;;;;;;3.00;3.00;;;;;18.90;57.57;101590.72;4977845;28;45453;-54
2022/06/10 06:48:46;;;;;;;;;4.50;3.75;;;;;19.01;57.47;101608.50;4978389;28;45398;-56
2022/06/10 06:51:11;;;;;;;;;4.00;4.00;;;;;19.03;57.33;101600.78;4977516;28;45384;-52
2022/06/10 06:53:37;;;;;;;;;1.50;1.50;;;;;18.95;57.50;101574.16;4978426;28;45413;-51
2022/06/10 06:56:07;;;;;;;;;4.00;3.00;;;;;19.22;56.72;101611.69;4977121;28;46469;-55
2022/06/10 06:58:32;;;;;;;;;2.20;2.20;;;;;19.00;56.79;101576.19;4958526;28;45448;-54
2022/06/10 07:00:58;;;;;;;;;2.50;1.75;;;;;19.21;56.50;101602.50;4998441;28;45465;-57
2022/06/10 07:03:24;;;;;;;;;5.00;2.00;;;;;19.24;56.62;101609.50;4996588;28;45699;-51
2022/06/10 07:05:50;;;;;;;;;2.00;2.00;;;;;19.26;56.18;101612.03;4997472;28;46774;-52
2022/06/10 07:08:15;;;;;;;;;4.25;2.25;;;;;19.21;56.20;101601.66;4996400;28;45498;-50
2022/06/10 07:10:40;;;;;;;;;1.75;1.25;;;;;19.25;56.38;101607.56;4997603;28;45248;-53
2022/06/10 07:13:06;;;;;;;;;4.25;2.75;;;;;19.33;56.50;101615.50;4996649;28;45356;-55
2022/06/10 07:15:32;;;;;;;;;5.00;5.00;;;;;19.32;56.11;101603.53;4997472;28;46648;-54
2022/06/10 07:17:58;;;;;;;;;5.00;2.50;;;;;19.25;55.79;101571.41;4997461;28;45375;-50
2022/06/10 07:20:27;;;;;;;;;4.00;4.00;;;;;19.52;55.70;101607.78;4996326;28;45490;-54
2022/06/10 07:22:52;;;;;;;;;5.00;3.80;;;;;19.57;55.93;101605.09;4996329;28;45420;-55
2022/06/10 07:25:19;;;;;;;;;4.00;3.00;;;;;19.46;55.50;101580.94;4997501;28;45543;-51
2022/06/10 07:27:44;;;;;;;;;8.00;4.00;;;;;19.63;55.41;101604.06;4997228;28;45555;-54
2022/06/10 07:30:12;;;;;;;;;3.25;2.25;;;;;19.52;54.67;101579.09;4997555;28;45263;-51
2022/06/10 07:32:38;;;;;;;;;4.20;4.00;;;;;19.58;54.62;101592.84;5028953;28;45422;-53
2022/06/10 07:35:04;;;;;;;;;5.00;4.00;;;;;19.53;54.82;101578.00;4997453;28;46566;-56
2022/06/10 07:37:30;;;;;;;;;3.00;3.00;;;;;19.77;54.34;101618.53;5028304;28;45442;-51
2022/06/10 07:39:55;;;;;;;;;5.25;3.00;;;;;19.67;54.16;101590.50;4997176;28;45354;-52
2022/06/10 07:42:21;;;;;;;;;5.75;3.50;;;;;19.94;54.59;101614.06;4997609;28;45704;-53
2022/06/10 07:44:46;;;;;;;;;2.25;2.25;;;;;20.10;54.67;101617.91;4996894;28;45567;-52
2022/06/10 07:47:13;;;;;;;;;4.00;2.00;;;;;20.22;53.93;101620.63;4997336;28;45397;-49
2022/06/10 07:49:38;;;;;;;;;3.00;3.00;;;;;20.31;53.59;101617.16;4997391;28;45408;-50
2022/06/10 07:52:05;;;;;;;;;4.75;3.50;;;;;20.39;53.38;101627.00;4997828;28;45370;-56
2022/06/10 07:54:31;;;;;;;;;2.00;1.40;;;;;20.40;53.32;101613.91;5012041;28;45783;-55
2022/06/10 07:56:57;;;;;;;;;3.80;1.80;;;;;20.48;52.80;101612.63;4964564;28;45427;-54
2022/06/10 07:59:22;;;;;;;;;4.00;2.50;;;;;20.52;52.11;101611.00;4995722;28;45349;-54
2022/06/10 08:01:48;;;;;;;;;3.75;3.75;;;;;20.57;52.37;101605.50;4997337;28;45323;-54
2022/06/10 08:04:13;;;;;;;;;4.00;3.00;;;;;20.57;52.77;101614.72;4996716;28;46245;-54
2022/06/10 08:06:40;;;;;;;;;2.00;2.00;;;;;20.58;51.69;101613.59;5017914;28;45549;-51
2022/06/10 08:09:06;;;;;;;;;4.80;3.80;;;;;20.57;52.08;101614.72;4977087;28;45386;-53
2022/06/10 08:11:32;;;;;;;;;2.25;1.50;;;;;20.58;52.54;101601.59;4976958;28;45620;-55
2022/06/10 08:13:58;;;;;;;;;2.00;2.00;;;;;20.66;52.37;101603.91;4976443;28;45393;-49
2022/06/10 08:16:23;;;;;;;;;3.25;1.25;;;;;20.63;52.11;101568.19;4976517;28;45474;-51
2022/06/10 08:18:49;;;;;;;;;1.75;1.75;;;;;20.87;51.63;101590.28;4977155;28;45448;-54
2022/06/10 08:22:32;;;;;;;;;0.25;0.25;;;;;20.96;50.48;101599.88;4977465;28;45489;-52
2022/06/10 08:24:15;;;;;;;;;2.00;1.20;;;;;20.98;50.08;101606.00;4976940;28;46442;-52
2022/06/10 08:26:40;;;;;;;;;0.50;0.50;;;;;20.91;49.10;101594.22;4976997;28;45441;-47
2022/06/10 08:29:07;;;;;;;;;2.00;2.00;;;;;20.97;49.53;101606.31;4976941;28;45429;-50
2022/06/10 08:31:32;;;;;;;;;4.00;2.80;;;;;21.09;49.75;101608.94;4977396;28;45573;-53
2022/06/10 08:34:02;;;;;;;;;0.50;0.50;;;;;20.75;49.60;101547.72;4964451;28;46677;-52
2022/06/10 08:36:28;;;;;;;;;4.00;4.00;;;;;21.08;49.24;101588.53;4957788;28;48429;-49
2022/06/10 08:38:54;;;;;;;;;3.00;3.00;;;;;21.07;49.25;101594.41;4954854;28;45622;-48
2022/06/10 08:41:31;;;;;;;;;4.25;3.00;;;;;21.06;49.61;101596.34;4954136;28;45499;-53
2022/06/10 08:43:57;;;;;;;;;3.20;1.60;;;;;21.09;49.37;101597.78;4985161;28;46812;-56
2022/06/10 08:46:52;;;;;;;;;1.00;1.00;;;;;21.03;49.23;101579.28;4972485;28;45798;-51
2022/06/10 08:49:58;;;;;;;;;3.00;3.00;;;;;21.05;49.49;101588.22;4971553;28;45941;-55
2022/06/10 08:52:44;;;;;;;;;1.80;1.80;;;;;20.89;49.59;101560.16;4942275;28;45321;-54
2022/06/10 08:55:16;;;;;;;;;1.20;0.60;;;;;21.09;48.94;101603.34;4984745;28;45491;-54
2022/06/10 08:57:44;;;;;;;;;2.00;2.00;;;;;21.16;49.33;101595.59;4974013;28;45497;-55
2022/06/10 09:00:13;;;;;;;;;2.60;1.00;;;;;21.07;49.21;101555.34;4945259;28;46003;-55
2022/06/10 09:02:42;;;;;;;;;2.20;0.80;;;;;21.50;49.38;101592.59;4972308;28;46053;-53
2022/06/10 09:05:14;;;;;;;;;4.60;1.40;;;;;21.65;49.12;101589.09;4969626;28;46174;-53
2022/06/10 09:08:09;;;;;;;;;2.40;1.00;;;;;21.83;48.76;101595.41;4951267;28;45476;-54
2022/06/10 09:10:43;;;;;;;;;1.00;1.00;;;;;21.75;48.26;101553.97;4943720;28;45688;-57
2022/06/10 09:13:33;;;;;;;;;2.40;1.00;;;;;22.00;48.04;101591.59;4935642;28;45412;-55
2022/06/10 09:16:10;;;;;;;;;1.00;1.00;;;;;22.00;47.97;101589.66;4952659;28;46771;-54
2022/06/10 09:18:44;;;;;;;;;2.60;1.60;;;;;21.98;47.92;101586.28;4952633;28;45343;-56
2022/06/10 09:21:30;;;;;;;;;3.00;2.00;;;;;21.77;47.41;101561.00;4962783;28;45800;-56
2022/06/10 09:23:57;;;;;;;;;1.00;1.00;;;;;21.95;47.20;101575.66;4971105;28;45981;-56
2022/06/10 09:26:28;;;;;;;;;1.40;1.40;;;;;22.09;47.00;101586.34;4954452;28;46517;-55
2022/06/10 09:28:54;;;;;;;;;0.80;0.80;;;;;22.18;47.23;101567.94;4967972;28;45445;-51
2022/06/10 09:31:28;;;;;;;;;2.00;2.00;;;;;22.26;46.64;101575.84;4968398;28;45483;-53
2022/06/10 09:34:03;;;;;;;;;1.00;1.00;;;;;22.27;45.72;101566.34;4969166;28;45475;-52
2022/06/10 09:36:40;;;;;;;;;0.60;0.60;;;;;22.12;45.93;101553.13;4949527;28;45572;-52
2022/06/10 09:43:11;;;;;;;;;2.80;1.00;;;;;22.32;45.39;101593.47;4944805;28;45360;-50
2022/06/10 09:45:45;;;;;;;;;1.60;0.60;;;;;22.25;45.37;101584.50;4967229;28;45753;-51
2022/06/10 09:48:23;;;;;;;;;1.00;1.00;;;;;22.35;45.21;101592.91;4963473;28;46796;-51
2022/06/10 09:50:58;;;;;;;;;3.00;0.60;;;;;22.22;45.11;101557.91;4990864;28;45465;-48
2022/06/10 09:53:33;;;;;;;;;2.20;0.00;;;;;22.37;45.53;101599.09;5021620;28;45479;-52
2022/06/10 09:56:05;;;;;;;;;2.00;2.00;;;;;22.30;45.79;101593.75;4991299;28;45327;-56
2022/06/10 09:58:32;;;;;;;;;5.20;1.60;;;;;22.23;45.95;101589.50;5007516;28;45853;-52
2022/06/10 10:01:18;;;;;;;;;1.40;1.00;;;;;22.18;46.31;101582.78;5025316;28;45821;-52
2022/06/10 10:03:59;;;;;;;;;1.00;1.00;;;;;22.14;46.27;101590.00;4986620;28;45625;-50
2022/06/10 10:06:37;;;;;;;;;2.40;2.40;;;;;22.22;46.25;101591.47;4994022;28;45926;-54
2022/06/10 10:09:25;;;;;;;;;2.80;1.20;;;;;22.29;46.65;101594.00;5001186;28;45729;-50
2022/06/10 10:12:08;;;;;;;;;3.00;2.20;;;;;22.14;46.99;101564.03;4974410;28;45553;-50
2022/06/10 10:14:45;;;;;;;;;3.40;2.00;;;;;22.44;46.81;101608.09;4972608;28;45457;-46
2022/06/10 10:17:32;;;;;;;;;3.80;1.00;;;;;22.54;46.62;101598.09;4955113;28;45694;-57
2022/06/10 10:20:19;;;;;;;;;1.00;1.00;;;;;22.67;46.87;101602.34;4992223;28;46572;-53
2022/06/10 10:23:17;;;;;;;;;1.00;1.00;;;;;22.78;46.62;101597.63;4974360;28;45581;-54
2022/06/10 10:25:44;;;;;;;;;2.60;2.00;;;;;22.59;46.72;101562.59;4991243;28;45925;-51
2022/06/10 10:28:20;;;;;;;;;4.40;3.00;;;;;22.81;46.91;101592.34;5025388;28;45689;-53
2022/06/10 10:30:49;;;;;;;;;4.20;2.80;;;;;22.85;47.25;101604.63;4992029;28;45938;-51
2022/06/10 10:33:15;;;;;;;;;3.80;3.00;;;;;22.81;46.89;101586.72;5002552;28;45462;-51
2022/06/10 10:35:45;;;;;;;;;2.75;2.75;;;;;22.92;47.08;101593.19;4960211;28;45422;-52
2022/06/10 10:38:13;;;;;;;;;2.80;1.60;;;;;22.88;47.26;101570.53;4974671;28;45508;-56
2022/06/10 10:40:43;;;;;;;;;1.60;1.60;;;;;22.96;47.16;101562.69;4973723;28;46862;-54
2022/06/10 10:43:16;;;;;;;;;3.00;2.00;;;;;23.29;47.47;101594.97;4971975;28;45471;-53
2022/06/10 10:45:52;;;;;;;;;3.40;2.00;;;;;23.28;47.75;101593.25;4972867;28;45496;-52
2022/06/10 10:48:24;;;;;;;;;2.00;2.00;;;;;23.35;47.37;101598.63;4972456;28;45643;-54
2022/06/10 10:51:03;;;;;;;;;2.00;2.00;;;;;23.11;47.00;101573.09;4972079;28;45761;-54
2022/06/10 10:53:47;;;;;;;;;2.00;2.00;;;;;23.25;47.68;101584.56;4973389;28;45760;-54
2022/06/10 10:56:13;;;;;;;;;1.00;1.00;;;;;23.19;47.43;101592.13;4972365;28;45447;-53
2022/06/10 10:58:59;;;;;;;;;3.60;3.60;;;;;23.23;47.55;101587.69;4976964;28;46445;-49
2022/06/10 11:01:43;;;;;;;;;2.20;2.20;;;;;23.23;47.89;101592.44;4992014;28;45667;-54
2022/06/10 11:04:25;;;;;;;;;2.60;2.60;;;;;23.29;47.50;101596.91;4993493;28;45955;-46
2022/06/10 11:07:26;;;;;;;;;2.00;2.00;;;;;23.40;47.74;101589.41;4992603;28;45993;-51
2022/06/10 11:09:53;;;;;;;;;1.60;1.00;;;;;23.45;47.04;101585.75;4944775;28;45593;-52
2022/06/10 11:12:20;;;;;;;;;2.60;2.60;;;;;23.43;47.28;101597.25;4954959;28;47024;-50
2022/06/10 11:14:56;;;;;;;;;3.80;2.80;;;;;23.44;47.22;101589.69;4972276;28;45530;-52
2022/06/10 11:17:23;;;;;;;;;1.00;1.00;;;;;23.37;47.28;101596.38;4972451;28;45403;-53
2022/06/10 11:20:20;;;;;;;;;3.00;3.00;;;;;23.25;47.03;101584.56;4987734;28;45653;-52
2022/06/10 11:22:46;;;;;;;;;1.60;1.40;;;;;23.08;46.94;101557.69;4991054;28;46695;-53
2022/06/10 11:25:15;;;;;;;;;5.00;3.80;;;;;23.38;47.09;101605.66;4973122;28;45504;-54
2022/06/10 11:27:47;;;;;;;;;0.00;0.00;;;;;23.18;47.12;101581.22;4972595;28;45406;-51
2022/06/10 11:30:16;;;;;;;;;1.80;1.00;;;;;23.32;47.27;101595.56;4973801;28;45890;-50
2022/06/10 11:33:16;;;;;;;;;3.00;2.00;;;;;23.45;47.38;101599.75;4992648;28;45763;-53
2022/06/10 11:36:10;;;;;;;;;2.20;2.00;;;;;23.44;46.71;101600.88;4935182;28;45716;-53
2022/06/10 11:38:39;;;;;;;;;2.20;2.20;;;;;23.44;47.23;101576.53;4964743;28;45535;-51
2022/06/10 11:41:28;;;;;;;;;1.40;1.40;;;;;23.77;46.62;101593.03;4954952;28;45800;-52
2022/06/10 11:44:10;;;;;;;;;2.00;0.80;;;;;23.72;46.18;101582.69;4970611;28;46171;-54
2022/06/10 11:46:43;;;;;;;;;3.60;2.00;;;;;23.78;46.37;101580.69;4968634;28;45536;-53
2022/06/10 11:49:15;;;;;;;;;1.60;1.60;;;;;23.80;46.25;101589.69;4955376;28;45577;-54
2022/06/10 11:51:48;;;;;;;;;2.80;2.00;;;;;23.83;46.28;101594.72;4973159;28;45597;-50
2022/06/10 11:54:39;;;;;;;;;1.40;1.40;;;;;23.93;45.42;101572.28;4955474;28;46175;-54